sensor_id;sensor_type;location;lat;lon;timestamp;temperature;humidity
29201;DHT22;16244;51.956;12.980;2023-05-10T00:01:49;9.40;99.90
29201;DHT22;16244;51.956;12.980;2023-05-10T00:04:17;9.40;99.90
29201;DHT22;16244;51.956;12.980;2023-05-10T00:06:44;9.40;99.90
29201;DHT22;16244;51.956;12.980;2023-05-10T00:09:12;9.40;99.90
29201;DHT22;16244;51.956;12.980;2023-05-10T00:11:39;9.30;99.90
29201;DHT22;16244;51.956;12.980;2023-05-10T00:14:08;9.30;99.90
29201;DHT22;16244;51.956;12.980;2023-05-10T00:16:36;9.20;99.90
29201;DHT22;16244;51.956;12.980;2023-05-10T00:19:04;9.10;99.90
29201;DHT22;16244;51.956;12.980;2023-05-10T00:21:31;9.00;99.90
29201;DHT22;16244;51.956;12.980;2023-05-10T00:24:00;9.00;99.90
29201;DHT22;16244;51.956;12.980;2023-05-10T00:26:27;9.00;99.90
29201;DHT22;16244;51.956;12.980;2023-05-10T00:28:55;9.00;99.90
29201;DHT22;16244;51.956;12.980;2023-05-10T00:31:24;8.90;99.90
29201;DHT22;16244;51.956;12.980;2023-05-10T00:33:52;9.00;99.90
29201;DHT22;16244;51.956;12.980;2023-05-10T00:36:19;8.90;99.90
29201;DHT22;16244;51.956;12.980;2023-05-10T00:38:47;9.00;99.90
29201;DHT22;16244;51.956;12.980;2023-05-10T00:41:15;9.00;99.90
29201;DHT22;16244;51.956;12.980;2023-05-10T00:43:42;9.00;99.90
29201;DHT22;16244;51.956;12.980;2023-05-10T00:46:10;9.00;99.90
29201;DHT22;16244;51.956;12.980;2023-05-10T00:48:39;9.00;99.90
29201;DHT22;16244;51.956;12.980;2023-05-10T00:51:07;9.00;99.90
29201;DHT22;16244;51.956;12.980;2023-05-10T00:53:35;9.00;99.90
29201;DHT22;16244;51.956;12.980;2023-05-10T00:56:03;9.10;99.90
29201;DHT22;16244;51.956;12.980;2023-05-10T00:58:35;9.00;99.90
29201;DHT22;16244;51.956;12.980;2023-05-10T01:01:08;9.00;99.90
29201;DHT22;16244;51.956;12.980;2023-05-10T01:03:36;9.00;99.90
29201;DHT22;16244;51.956;12.980;2023-05-10T01:06:05;8.90;99.90
29201;DHT22;16244;51.956;12.980;2023-05-10T01:08:33;8.90;99.90
29201;DHT22;16244;51.956;12.980;2023-05-10T01:11:01;8.90;99.90
29201;DHT22;16244;51.956;12.980;2023-05-10T01:13:33;8.90;99.90
29201;DHT22;16244;51.956;12.980;2023-05-10T01:16:01;8.80;99.90
29201;DHT22;16244;51.956;12.980;2023-05-10T01:18:30;8.90;99.90
29201;DHT22;16244;51.956;12.980;2023-05-10T01:21:11;8.90;99.90
29201;DHT22;16244;51.956;12.980;2023-05-10T01:24:03;8.90;99.90
29201;DHT22;16244;51.956;12.980;2023-05-10T01:27:04;8.80;99.90
29201;DHT22;16244;51.956;12.980;2023-05-10T01:29:51;8.80;99.90
29201;DHT22;16244;51.956;12.980;2023-05-10T01:32:32;8.80;99.90
29201;DHT22;16244;51.956;12.980;2023-05-10T01:35:06;8.80;99.90
29201;DHT22;16244;51.956;12.980;2023-05-10T01:37:41;8.80;99.90
29201;DHT22;16244;51.956;12.980;2023-05-10T01:40:16;8.80;99.90
29201;DHT22;16244;51.956;12.980;2023-05-10T01:42:49;8.60;99.90
29201;DHT22;16244;51.956;12.980;2023-05-10T01:45:21;8.60;99.90
29201;DHT22;16244;51.956;12.980;2023-05-10T01:47:58;8.50;99.90
29201;DHT22;16244;51.956;12.980;2023-05-10T01:50:30;8.40;99.90
29201;DHT22;16244;51.956;12.980;2023-05-10T01:53:01;8.20;99.90
29201;DHT22;16244;51.956;12.980;2023-05-10T01:55:32;8.00;99.90
29201;DHT22;16244;51.956;12.980;2023-05-10T01:58:05;7.90;99.90
29201;DHT22;16244;51.956;12.980;2023-05-10T02:00:35;7.90;99.90
29201;DHT22;16244;51.956;12.980;2023-05-10T02:03:07;7.70;99.90
29201;DHT22;16244;51.956;12.980;2023-05-10T02:05:36;7.70;99.90
29201;DHT22;16244;51.956;12.980;2023-05-10T02:08:06;7.70;99.90
29201;DHT22;16244;51.956;12.980;2023-05-10T02:10:34;7.60;99.90
29201;DHT22;16244;51.956;12.980;2023-05-10T02:13:03;7.70;99.90
29201;DHT22;16244;51.956;12.980;2023-05-10T02:15:33;7.80;99.90
29201;DHT22;16244;51.956;12.980;2023-05-10T02:18:02;7.70;99.90
29201;DHT22;16244;51.956;12.980;2023-05-10T02:20:34;7.70;99.90
29201;DHT22;16244;51.956;12.980;2023-05-10T02:23:03;7.70;99.90
29201;DHT22;16244;51.956;12.980;2023-05-10T02:25:32;7.80;99.90
29201;DHT22;16244;51.956;12.980;2023-05-10T02:28:01;7.80;99.90
29201;DHT22;16244;51.956;12.980;2023-05-10T02:30:31;7.70;99.90
29201;DHT22;16244;51.956;12.980;2023-05-10T02:32:59;7.70;99.90
29201;DHT22;16244;51.956;12.980;2023-05-10T02:35:28;7.70;99.90
29201;DHT22;16244;51.956;12.980;2023-05-10T02:37:58;7.60;99.90
29201;DHT22;16244;51.956;12.980;2023-05-10T02:40:27;7.60;99.90
29201;DHT22;16244;51.956;12.980;2023-05-10T02:42:56;7.20;99.90
29201;DHT22;16244;51.956;12.980;2023-05-10T02:45:29;7.00;99.90
29201;DHT22;16244;51.956;12.980;2023-05-10T02:47:58;6.90;99.90
29201;DHT22;16244;51.956;12.980;2023-05-10T02:50:27;6.80;99.90
29201;DHT22;16244;51.956;12.980;2023-05-10T02:53:01;6.70;99.90
29201;DHT22;16244;51.956;12.980;2023-05-10T02:55:33;6.70;99.90
29201;DHT22;16244;51.956;12.980;2023-05-10T02:58:03;6.70;99.90
29201;DHT22;16244;51.956;12.980;2023-05-10T03:00:31;6.60;99.90
29201;DHT22;16244;51.956;12.980;2023-05-10T03:02:58;6.60;99.90
29201;DHT22;16244;51.956;12.980;2023-05-10T03:05:26;6.60;99.90
29201;DHT22;16244;51.956;12.980;2023-05-10T03:07:54;6.50;99.90
29201;DHT22;16244;51.956;12.980;2023-05-10T03:10:27;6.50;99.90
29201;DHT22;16244;51.956;12.980;2023-05-10T03:13:06;6.50;99.90
29201;DHT22;16244;51.956;12.980;2023-05-10T03:15:40;6.60;99.90
29201;DHT22;16244;51.956;12.980;2023-05-10T03:18:12;6.60;99.90
29201;DHT22;16244;51.956;12.980;2023-05-10T03:20:43;6.60;99.90
29201;DHT22;16244;51.956;12.980;2023-05-10T03:23:18;6.60;99.90
29201;DHT22;16244;51.956;12.980;2023-05-10T03:25:49;6.70;99.90
29201;DHT22;16244;51.956;12.980;2023-05-10T03:28:18;6.70;99.90
29201;DHT22;16244;51.956;12.980;2023-05-10T03:30:46;6.70;99.90
29201;DHT22;16244;51.956;12.980;2023-05-10T03:33:14;6.90;99.90
29201;DHT22;16244;51.956;12.980;2023-05-10T03:35:42;6.80;99.90
29201;DHT22;16244;51.956;12.980;2023-05-10T03:38:11;6.90;99.90
29201;DHT22;16244;51.956;12.980;2023-05-10T03:40:39;6.90;99.90
29201;DHT22;16244;51.956;12.980;2023-05-10T03:43:08;6.90;99.90
29201;DHT22;16244;51.956;12.980;2023-05-10T03:45:35;6.90;99.90
29201;DHT22;16244;51.956;12.980;2023-05-10T03:48:03;6.80;99.90
29201;DHT22;16244;51.956;12.980;2023-05-10T03:50:31;7.00;99.90
29201;DHT22;16244;51.956;12.980;2023-05-10T03:52:59;7.10;99.90
29201;DHT22;16244;51.956;12.980;2023-05-10T03:55:26;7.30;99.90
29201;DHT22;16244;51.956;12.980;2023-05-10T03:57:54;7.40;99.90
29201;DHT22;16244;51.956;12.980;2023-05-10T04:00:23;7.50;99.90
29201;DHT22;16244;51.956;12.980;2023-05-10T04:02:51;7.60;99.90
29201;DHT22;16244;51.956;12.980;2023-05-10T04:05:18;7.70;99.90
29201;DHT22;16244;51.956;12.980;2023-05-10T04:07:46;7.70;99.90
29201;DHT22;16244;51.956;12.980;2023-05-10T04:10:15;7.80;99.90
29201;DHT22;16244;51.956;12.980;2023-05-10T04:12:43;7.90;99.90
29201;DHT22;16244;51.956;12.980;2023-05-10T04:15:11;8.00;99.90
29201;DHT22;16244;51.956;12.980;2023-05-10T04:17:40;8.00;99.90
29201;DHT22;16244;51.956;12.980;2023-05-10T04:20:09;8.10;99.90
29201;DHT22;16244;51.956;12.980;2023-05-10T04:22:36;8.20;99.90
29201;DHT22;16244;51.956;12.980;2023-05-10T04:25:05;8.30;99.90
29201;DHT22;16244;51.956;12.980;2023-05-10T04:27:33;8.40;99.90
29201;DHT22;16244;51.956;12.980;2023-05-10T04:30:01;8.60;99.90
29201;DHT22;16244;51.956;12.980;2023-05-10T04:32:29;8.70;99.90
29201;DHT22;16244;51.956;12.980;2023-05-10T04:34:58;8.80;99.90
29201;DHT22;16244;51.956;12.980;2023-05-10T04:37:26;8.90;99.90
29201;DHT22;16244;51.956;12.980;2023-05-10T04:39:54;9.00;99.90
29201;DHT22;16244;51.956;12.980;2023-05-10T04:42:22;9.20;99.90
29201;DHT22;16244;51.956;12.980;2023-05-10T04:44:50;9.30;99.90
29201;DHT22;16244;51.956;12.980;2023-05-10T04:47:18;9.40;99.90
29201;DHT22;16244;51.956;12.980;2023-05-10T04:49:45;9.50;99.90
29201;DHT22;16244;51.956;12.980;2023-05-10T04:52:15;9.60;99.90
29201;DHT22;16244;51.956;12.980;2023-05-10T04:54:44;9.80;99.90
29201;DHT22;16244;51.956;12.980;2023-05-10T04:57:12;9.90;99.90
29201;DHT22;16244;51.956;12.980;2023-05-10T04:59:40;10.10;99.90
29201;DHT22;16244;51.956;12.980;2023-05-10T05:02:07;10.20;99.90
29201;DHT22;16244;51.956;12.980;2023-05-10T05:04:35;10.30;99.90
29201;DHT22;16244;51.956;12.980;2023-05-10T05:07:02;10.40;99.90
29201;DHT22;16244;51.956;12.980;2023-05-10T05:09:31;10.50;99.90
29201;DHT22;16244;51.956;12.980;2023-05-10T05:11:59;10.60;99.90
29201;DHT22;16244;51.956;12.980;2023-05-10T05:14:26;10.70;99.90
29201;DHT22;16244;51.956;12.980;2023-05-10T05:16:54;10.90;99.90
29201;DHT22;16244;51.956;12.980;2023-05-10T05:19:22;11.00;99.90
29201;DHT22;16244;51.956;12.980;2023-05-10T05:21:49;11.10;99.90
29201;DHT22;16244;51.956;12.980;2023-05-10T05:24:17;11.30;99.90
29201;DHT22;16244;51.956;12.980;2023-05-10T05:26:46;11.40;99.90
29201;DHT22;16244;51.956;12.980;2023-05-10T05:29:14;11.60;99.90
29201;DHT22;16244;51.956;12.980;2023-05-10T05:31:42;11.80;99.90
29201;DHT22;16244;51.956;12.980;2023-05-10T05:34:10;12.00;99.90
29201;DHT22;16244;51.956;12.980;2023-05-10T05:36:37;12.10;99.90
29201;DHT22;16244;51.956;12.980;2023-05-10T05:39:05;12.30;99.90
29201;DHT22;16244;51.956;12.980;2023-05-10T05:41:33;12.50;99.90
29201;DHT22;16244;51.956;12.980;2023-05-10T05:44:03;12.60;99.90
29201;DHT22;16244;51.956;12.980;2023-05-10T05:46:30;12.70;98.20
29201;DHT22;16244;51.956;12.980;2023-05-10T05:48:58;12.80;92.90
29201;DHT22;16244;51.956;12.980;2023-05-10T05:51:26;12.90;95.10
29201;DHT22;16244;51.956;12.980;2023-05-10T05:53:54;13.00;97.80
29201;DHT22;16244;51.956;12.980;2023-05-10T05:56:23;13.20;96.50
29201;DHT22;16244;51.956;12.980;2023-05-10T05:58:51;13.30;94.60
29201;DHT22;16244;51.956;12.980;2023-05-10T06:01:20;13.40;94.00
29201;DHT22;16244;51.956;12.980;2023-05-10T06:03:47;13.50;93.70
29201;DHT22;16244;51.956;12.980;2023-05-10T06:06:15;13.60;91.20
29201;DHT22;16244;51.956;12.980;2023-05-10T06:08:43;13.70;90.70
29201;DHT22;16244;51.956;12.980;2023-05-10T06:11:10;13.90;92.10
29201;DHT22;16244;51.956;12.980;2023-05-10T06:13:38;14.00;90.20
29201;DHT22;16244;51.956;12.980;2023-05-10T06:16:06;14.20;85.70
29201;DHT22;16244;51.956;12.980;2023-05-10T06:18:35;14.40;86.20
29201;DHT22;16244;51.956;12.980;2023-05-10T06:21:02;14.50;84.60
29201;DHT22;16244;51.956;12.980;2023-05-10T06:23:30;14.70;81.90
29201;DHT22;16244;51.956;12.980;2023-05-10T06:25:58;15.00;80.70
29201;DHT22;16244;51.956;12.980;2023-05-10T06:28:26;15.10;87.50
29201;DHT22;16244;51.956;12.980;2023-05-10T06:30:53;15.20;78.30
29201;DHT22;16244;51.956;12.980;2023-05-10T06:33:21;15.20;81.40
29201;DHT22;16244;51.956;12.980;2023-05-10T06:35:50;15.40;80.60
29201;DHT22;16244;51.956;12.980;2023-05-10T06:38:19;15.50;78.40
29201;DHT22;16244;51.956;12.980;2023-05-10T06:40:46;15.80;79.30
29201;DHT22;16244;51.956;12.980;2023-05-10T06:43:14;15.80;78.40
29201;DHT22;16244;51.956;12.980;2023-05-10T06:45:42;16.00;75.00
29201;DHT22;16244;51.956;12.980;2023-05-10T06:48:10;16.10;74.70
29201;DHT22;16244;51.956;12.980;2023-05-10T06:50:37;16.30;77.90
29201;DHT22;16244;51.956;12.980;2023-05-10T06:53:06;16.40;74.40
29201;DHT22;16244;51.956;12.980;2023-05-10T06:55:34;16.60;69.60
29201;DHT22;16244;51.956;12.980;2023-05-10T06:58:02;16.80;70.70
29201;DHT22;16244;51.956;12.980;2023-05-10T07:00:29;16.90;69.90
29201;DHT22;16244;51.956;12.980;2023-05-10T07:02:57;17.10;70.30
29201;DHT22;16244;51.956;12.980;2023-05-10T07:05:24;17.20;64.30
29201;DHT22;16244;51.956;12.980;2023-05-10T07:07:54;17.40;70.40
29201;DHT22;16244;51.956;12.980;2023-05-10T07:10:22;17.50;68.20
29201;DHT22;16244;51.956;12.980;2023-05-10T07:12:50;17.70;65.20
29201;DHT22;16244;51.956;12.980;2023-05-10T07:15:18;17.90;70.20
29201;DHT22;16244;51.956;12.980;2023-05-10T07:17:46;18.00;71.40
29201;DHT22;16244;51.956;12.980;2023-05-10T07:20:13;18.20;66.20
29201;DHT22;16244;51.956;12.980;2023-05-10T07:22:41;18.30;66.70
29201;DHT22;16244;51.956;12.980;2023-05-10T07:25:08;18.50;67.20
29201;DHT22;16244;51.956;12.980;2023-05-10T07:27:39;18.60;54.90
29201;DHT22;16244;51.956;12.980;2023-05-10T07:30:09;18.70;57.70
29201;DHT22;16244;51.956;12.980;2023-05-10T07:32:37;18.80;62.40
29201;DHT22;16244;51.956;12.980;2023-05-10T07:35:06;19.10;56.40
29201;DHT22;16244;51.956;12.980;2023-05-10T07:37:34;19.30;53.40
29201;DHT22;16244;51.956;12.980;2023-05-10T07:40:03;19.30;53.40
29201;DHT22;16244;51.956;12.980;2023-05-10T07:42:31;19.60;52.60
29201;DHT22;16244;51.956;12.980;2023-05-10T07:45:00;19.80;53.90
29201;DHT22;16244;51.956;12.980;2023-05-10T07:47:28;19.90;57.40
29201;DHT22;16244;51.956;12.980;2023-05-10T07:49:55;20.10;56.70
29201;DHT22;16244;51.956;12.980;2023-05-10T07:52:22;20.10;54.20
29201;DHT22;16244;51.956;12.980;2023-05-10T07:54:50;20.30;53.70
29201;DHT22;16244;51.956;12.980;2023-05-10T07:57:18;20.40;50.50
29201;DHT22;16244;51.956;12.980;2023-05-10T07:59:45;20.60;51.50
29201;DHT22;16244;51.956;12.980;2023-05-10T08:02:15;20.70;52.00
29201;DHT22;16244;51.956;12.980;2023-05-10T08:04:43;21.00;50.70
29201;DHT22;16244;51.956;12.980;2023-05-10T08:07:12;21.10;50.60
29201;DHT22;16244;51.956;12.980;2023-05-10T08:09:40;21.30;51.40
29201;DHT22;16244;51.956;12.980;2023-05-10T08:12:08;21.20;49.00
29201;DHT22;16244;51.956;12.980;2023-05-10T08:14:35;21.50;49.10
29201;DHT22;16244;51.956;12.980;2023-05-10T08:17:03;21.80;47.80
29201;DHT22;16244;51.956;12.980;2023-05-10T08:19:32;21.80;46.40
29201;DHT22;16244;51.956;12.980;2023-05-10T08:22:00;21.70;45.50
29201;DHT22;16244;51.956;12.980;2023-05-10T08:24:27;22.00;44.50
29201;DHT22;16244;51.956;12.980;2023-05-10T08:26:55;22.10;45.60
29201;DHT22;16244;51.956;12.980;2023-05-10T08:29:22;22.40;42.60
29201;DHT22;16244;51.956;12.980;2023-05-10T08:31:50;22.40;47.40
29201;DHT22;16244;51.956;12.980;2023-05-10T08:34:17;22.30;49.00
29201;DHT22;16244;51.956;12.980;2023-05-10T08:36:46;22.20;46.10
29201;DHT22;16244;51.956;12.980;2023-05-10T08:39:14;22.40;46.30
29201;DHT22;16244;51.956;12.980;2023-05-10T08:41:44;22.50;50.30
29201;DHT22;16244;51.956;12.980;2023-05-10T08:44:13;22.70;47.10
29201;DHT22;16244;51.956;12.980;2023-05-10T08:46:41;22.80;48.40
29201;DHT22;16244;51.956;12.980;2023-05-10T08:49:13;22.90;43.50
29201;DHT22;16244;51.956;12.980;2023-05-10T08:51:45;23.00;44.20
29201;DHT22;16244;51.956;12.980;2023-05-10T08:54:15;23.20;45.80
29201;DHT22;16244;51.956;12.980;2023-05-10T08:56:43;23.40;49.00
29201;DHT22;16244;51.956;12.980;2023-05-10T08:59:10;23.40;47.10
29201;DHT22;16244;51.956;12.980;2023-05-10T09:01:40;23.60;44.20
29201;DHT22;16244;51.956;12.980;2023-05-10T09:04:08;23.50;42.80
29201;DHT22;16244;51.956;12.980;2023-05-10T09:06:36;23.60;44.30
29201;DHT22;16244;51.956;12.980;2023-05-10T09:09:04;23.80;44.90
29201;DHT22;16244;51.956;12.980;2023-05-10T09:11:33;23.90;42.00
29201;DHT22;16244;51.956;12.980;2023-05-10T09:14:01;24.10;45.80
29201;DHT22;16244;51.956;12.980;2023-05-10T09:16:29;23.90;40.30
29201;DHT22;16244;51.956;12.980;2023-05-10T09:18:56;24.00;40.90
29201;DHT22;16244;51.956;12.980;2023-05-10T09:21:24;23.90;40.90
29201;DHT22;16244;51.956;12.980;2023-05-10T09:23:52;24.10;39.90
29201;DHT22;16244;51.956;12.980;2023-05-10T09:26:22;24.50;44.00
29201;DHT22;16244;51.956;12.980;2023-05-10T09:28:52;24.90;40.10
29201;DHT22;16244;51.956;12.980;2023-05-10T09:31:20;25.30;39.60
29201;DHT22;16244;51.956;12.980;2023-05-10T09:33:48;25.50;39.90
29201;DHT22;16244;51.956;12.980;2023-05-10T09:36:16;25.40;36.50
29201;DHT22;16244;51.956;12.980;2023-05-10T09:38:47;25.30;38.00
29201;DHT22;16244;51.956;12.980;2023-05-10T09:41:16;25.80;39.60
29201;DHT22;16244;51.956;12.980;2023-05-10T09:43:44;25.90;36.40
29201;DHT22;16244;51.956;12.980;2023-05-10T09:46:14;25.70;40.30
29201;DHT22;16244;51.956;12.980;2023-05-10T09:48:43;25.50;40.90
29201;DHT22;16244;51.956;12.980;2023-05-10T09:51:10;25.10;37.70
29201;DHT22;16244;51.956;12.980;2023-05-10T09:53:38;25.20;40.00
29201;DHT22;16244;51.956;12.980;2023-05-10T09:56:05;25.30;38.40
29201;DHT22;16244;51.956;12.980;2023-05-10T09:58:36;25.40;39.60
29201;DHT22;16244;51.956;12.980;2023-05-10T10:01:04;25.80;38.20
29201;DHT22;16244;51.956;12.980;2023-05-10T10:03:42;25.90;37.00
29201;DHT22;16244;51.956;12.980;2023-05-10T10:06:10;26.20;35.70
29201;DHT22;16244;51.956;12.980;2023-05-10T10:08:38;26.10;39.80
29201;DHT22;16244;51.956;12.980;2023-05-10T10:11:06;26.30;37.60
29201;DHT22;16244;51.956;12.980;2023-05-10T10:13:34;26.70;35.10
29201;DHT22;16244;51.956;12.980;2023-05-10T10:16:02;26.40;33.90
29201;DHT22;16244;51.956;12.980;2023-05-10T10:18:30;26.50;35.30
29201;DHT22;16244;51.956;12.980;2023-05-10T10:21:00;26.30;36.40
29201;DHT22;16244;51.956;12.980;2023-05-10T10:23:28;26.10;36.20
29201;DHT22;16244;51.956;12.980;2023-05-10T10:25:57;25.90;34.40
29201;DHT22;16244;51.956;12.980;2023-05-10T10:28:34;25.90;36.60
29201;DHT22;16244;51.956;12.980;2023-05-10T10:31:17;26.50;36.70
29201;DHT22;16244;51.956;12.980;2023-05-10T10:33:59;26.70;36.70
29201;DHT22;16244;51.956;12.980;2023-05-10T10:36:29;27.10;36.00
29201;DHT22;16244;51.956;12.980;2023-05-10T10:38:58;26.90;36.90
29201;DHT22;16244;51.956;12.980;2023-05-10T10:41:32;26.80;34.50
29201;DHT22;16244;51.956;12.980;2023-05-10T10:44:25;26.50;34.90
29201;DHT22;16244;51.956;12.980;2023-05-10T10:47:01;27.00;36.70
29201;DHT22;16244;51.956;12.980;2023-05-10T10:49:32;26.40;35.40
29201;DHT22;16244;51.956;12.980;2023-05-10T10:52:32;26.10;35.40
29201;DHT22;16244;51.956;12.980;2023-05-10T10:55:03;26.40;36.90
29201;DHT22;16244;51.956;12.980;2023-05-10T10:57:33;26.80;37.00
29201;DHT22;16244;51.956;12.980;2023-05-10T11:00:25;26.80;34.30
29201;DHT22;16244;51.956;12.980;2023-05-10T11:02:56;26.90;35.80
29201;DHT22;16244;51.956;12.980;2023-05-10T11:05:36;26.90;34.70
29201;DHT22;16244;51.956;12.980;2023-05-10T11:08:18;26.90;35.00
29201;DHT22;16244;51.956;12.980;2023-05-10T11:11:07;26.90;34.20
29201;DHT22;16244;51.956;12.980;2023-05-10T11:13:40;26.70;35.00
29201;DHT22;16244;51.956;12.980;2023-05-10T11:16:16;26.90;36.40
29201;DHT22;16244;51.956;12.980;2023-05-10T11:18:58;26.70;33.80
29201;DHT22;16244;51.956;12.980;2023-05-10T11:21:27;26.80;37.60
29201;DHT22;16244;51.956;12.980;2023-05-10T11:23:59;26.90;34.50
29201;DHT22;16244;51.956;12.980;2023-05-10T11:26:31;26.10;36.00
29201;DHT22;16244;51.956;12.980;2023-05-10T11:28:59;25.80;35.10
29201;DHT22;16244;51.956;12.980;2023-05-10T11:31:28;25.50;38.40
29201;DHT22;16244;51.956;12.980;2023-05-10T11:33:57;25.90;38.90
29201;DHT22;16244;51.956;12.980;2023-05-10T11:36:27;25.50;38.70
29201;DHT22;16244;51.956;12.980;2023-05-10T11:38:56;25.30;38.60
29201;DHT22;16244;51.956;12.980;2023-05-10T11:41:25;25.00;38.00
29201;DHT22;16244;51.956;12.980;2023-05-10T11:43:54;24.70;39.90
29201;DHT22;16244;51.956;12.980;2023-05-10T11:46:23;24.40;40.30
29201;DHT22;16244;51.956;12.980;2023-05-10T11:48:52;24.20;43.20
29201;DHT22;16244;51.956;12.980;2023-05-10T11:51:21;24.30;43.50
29201;DHT22;16244;51.956;12.980;2023-05-10T11:53:49;24.00;42.10
29201;DHT22;16244;51.956;12.980;2023-05-10T11:56:19;23.90;45.60
29201;DHT22;16244;51.956;12.980;2023-05-10T11:58:52;24.30;43.30
29201;DHT22;16244;51.956;12.980;2023-05-10T12:01:21;24.40;39.20
29201;DHT22;16244;51.956;12.980;2023-05-10T12:03:49;24.40;39.90
29201;DHT22;16244;51.956;12.980;2023-05-10T12:06:19;24.30;40.60
29201;DHT22;16244;51.956;12.980;2023-05-10T12:08:47;24.10;40.50
29201;DHT22;16244;51.956;12.980;2023-05-10T12:11:20;24.20;42.00
29201;DHT22;16244;51.956;12.980;2023-05-10T12:13:51;24.00;41.60
29201;DHT22;16244;51.956;12.980;2023-05-10T12:16:20;23.70;42.90
29201;DHT22;16244;51.956;12.980;2023-05-10T12:18:49;23.40;39.50
29201;DHT22;16244;51.956;12.980;2023-05-10T12:21:18;23.20;41.80
29201;DHT22;16244;51.956;12.980;2023-05-10T12:23:47;23.10;43.90
29201;DHT22;16244;51.956;12.980;2023-05-10T12:26:15;23.50;47.50
29201;DHT22;16244;51.956;12.980;2023-05-10T12:28:44;23.50;45.40
29201;DHT22;16244;51.956;12.980;2023-05-10T12:31:11;23.60;45.40
29201;DHT22;16244;51.956;12.980;2023-05-10T12:33:40;23.50;43.40
29201;DHT22;16244;51.956;12.980;2023-05-10T12:36:10;23.40;43.50
29201;DHT22;16244;51.956;12.980;2023-05-10T12:38:39;23.60;45.10
29201;DHT22;16244;51.956;12.980;2023-05-10T12:41:10;23.60;45.80
29201;DHT22;16244;51.956;12.980;2023-05-10T12:43:38;23.40;47.70
29201;DHT22;16244;51.956;12.980;2023-05-10T12:46:09;23.10;50.80
29201;DHT22;16244;51.956;12.980;2023-05-10T12:48:38;22.90;51.80
29201;DHT22;16244;51.956;12.980;2023-05-10T12:51:07;23.00;49.80
29201;DHT22;16244;51.956;12.980;2023-05-10T12:53:36;22.90;52.20
29201;DHT22;16244;51.956;12.980;2023-05-10T12:56:04;22.90;51.00
29201;DHT22;16244;51.956;12.980;2023-05-10T12:58:32;23.00;51.00
29201;DHT22;16244;51.956;12.980;2023-05-10T13:00:59;22.80;51.30
29201;DHT22;16244;51.956;12.980;2023-05-10T13:03:28;22.80;52.10
29201;DHT22;16244;51.956;12.980;2023-05-10T13:05:56;22.90;52.10
29201;DHT22;16244;51.956;12.980;2023-05-10T13:08:24;23.00;51.30
29201;DHT22;16244;51.956;12.980;2023-05-10T13:10:52;23.00;51.50
29201;DHT22;16244;51.956;12.980;2023-05-10T13:13:19;22.90;53.70
29201;DHT22;16244;51.956;12.980;2023-05-10T13:15:47;22.60;52.70
29201;DHT22;16244;51.956;12.980;2023-05-10T13:18:15;22.60;54.80
29201;DHT22;16244;51.956;12.980;2023-05-10T13:20:44;22.50;53.70
29201;DHT22;16244;51.956;12.980;2023-05-10T13:23:11;22.50;53.20
29201;DHT22;16244;51.956;12.980;2023-05-10T13:25:39;22.50;56.50
29201;DHT22;16244;51.956;12.980;2023-05-10T13:28:07;22.40;61.60
29201;DHT22;16244;51.956;12.980;2023-05-10T13:30:35;22.20;63.30
29201;DHT22;16244;51.956;12.980;2023-05-10T13:33:05;22.10;60.80
29201;DHT22;16244;51.956;12.980;2023-05-10T13:35:36;22.10;59.40
29201;DHT22;16244;51.956;12.980;2023-05-10T13:38:05;22.20;61.70
29201;DHT22;16244;51.956;12.980;2023-05-10T13:40:35;22.00;61.20
29201;DHT22;16244;51.956;12.980;2023-05-10T13:43:04;21.90;61.70
29201;DHT22;16244;51.956;12.980;2023-05-10T13:45:32;22.00;63.70
29201;DHT22;16244;51.956;12.980;2023-05-10T13:48:00;22.30;59.10
29201;DHT22;16244;51.956;12.980;2023-05-10T13:50:27;22.30;58.60
29201;DHT22;16244;51.956;12.980;2023-05-10T13:52:55;22.30;57.90
29201;DHT22;16244;51.956;12.980;2023-05-10T13:55:24;22.40;57.60
29201;DHT22;16244;51.956;12.980;2023-05-10T13:57:53;22.20;59.70
29201;DHT22;16244;51.956;12.980;2023-05-10T14:00:21;22.10;60.90
29201;DHT22;16244;51.956;12.980;2023-05-10T14:02:51;22.00;62.20
29201;DHT22;16244;51.956;12.980;2023-05-10T14:05:20;21.90;62.90
29201;DHT22;16244;51.956;12.980;2023-05-10T14:07:51;21.40;65.70
29201;DHT22;16244;51.956;12.980;2023-05-10T14:10:21;21.40;66.70
29201;DHT22;16244;51.956;12.980;2023-05-10T14:12:52;21.50;65.50
29201;DHT22;16244;51.956;12.980;2023-05-10T14:15:20;21.80;64.10
29201;DHT22;16244;51.956;12.980;2023-05-10T14:17:49;22.10;61.00
29201;DHT22;16244;51.956;12.980;2023-05-10T14:20:18;22.30;64.20
29201;DHT22;16244;51.956;12.980;2023-05-10T14:22:45;22.10;63.80
29201;DHT22;16244;51.956;12.980;2023-05-10T14:25:14;22.00;63.70
29201;DHT22;16244;51.956;12.980;2023-05-10T14:27:42;22.00;69.80
29201;DHT22;16244;51.956;12.980;2023-05-10T14:30:12;21.70;66.90
29201;DHT22;16244;51.956;12.980;2023-05-10T14:32:40;21.80;67.40
29201;DHT22;16244;51.956;12.980;2023-05-10T14:35:08;21.70;68.70
29201;DHT22;16244;51.956;12.980;2023-05-10T14:37:35;21.70;68.50
29201;DHT22;16244;51.956;12.980;2023-05-10T14:40:04;21.50;70.10
29201;DHT22;16244;51.956;12.980;2023-05-10T14:42:32;21.20;69.40
29201;DHT22;16244;51.956;12.980;2023-05-10T14:45:00;21.20;71.60
29201;DHT22;16244;51.956;12.980;2023-05-10T14:47:29;21.30;71.50
29201;DHT22;16244;51.956;12.980;2023-05-10T14:49:57;21.50;70.20
29201;DHT22;16244;51.956;12.980;2023-05-10T14:52:25;21.50;69.90
29201;DHT22;16244;51.956;12.980;2023-05-10T14:54:53;21.60;71.40
29201;DHT22;16244;51.956;12.980;2023-05-10T14:57:20;21.70;70.20
29201;DHT22;16244;51.956;12.980;2023-05-10T14:59:48;21.80;69.70
29201;DHT22;16244;51.956;12.980;2023-05-10T15:02:15;21.80;68.60
29201;DHT22;16244;51.956;12.980;2023-05-10T15:04:44;21.70;70.70
29201;DHT22;16244;51.956;12.980;2023-05-10T15:07:12;21.60;71.00
29201;DHT22;16244;51.956;12.980;2023-05-10T15:09:41;21.50;71.20
29201;DHT22;16244;51.956;12.980;2023-05-10T15:12:09;21.50;73.00
29201;DHT22;16244;51.956;12.980;2023-05-10T15:14:36;21.60;70.80
29201;DHT22;16244;51.956;12.980;2023-05-10T15:17:06;21.60;72.30
29201;DHT22;16244;51.956;12.980;2023-05-10T15:19:33;21.70;73.30
29201;DHT22;16244;51.956;12.980;2023-05-10T15:22:04;21.60;74.50
29201;DHT22;16244;51.956;12.980;2023-05-10T15:24:31;21.60;76.00
29201;DHT22;16244;51.956;12.980;2023-05-10T15:26:59;21.60;75.70
29201;DHT22;16244;51.956;12.980;2023-05-10T15:29:26;21.70;78.30
29201;DHT22;16244;51.956;12.980;2023-05-10T15:31:54;21.70;74.80
29201;DHT22;16244;51.956;12.980;2023-05-10T15:34:22;21.90;74.90